Time;durP1;ratioP1;P1;durP2;ratioP2;P2;SDS_P1;SDS_P2;PMS_P1;PMS_P2;Temp;Humidity;BMP_temperature;BMP_pressure;BME280_temperature;BME280_humidity;BME280_pressure;Samples;Min_cycle;Max_cycle;Signal;HPM_P1;HPM_P2
2021/06/26 00:00:18;;;;;;;7.13;5.88;;;;;;;20.72;60.04;101353.69;699094;28;23481;-62
2021/06/26 00:00:39;;;;;;;7.20;5.38;;;;;;;20.72;60.06;101346.31;698014;28;51815;-62
2021/06/26 00:01:00;;;;;;;6.00;5.50;;;;;;;20.74;60.17;101354.31;699581;28;12200;-61
2021/06/26 00:01:21;;;;;;;6.25;5.65;;;;;;;20.75;60.20;101353.22;699491;28;21228;-62
2021/06/26 00:01:44;;;;;;;5.80;5.30;;;;;;;20.74;60.33;101351.56;699333;28;22397;-62
2021/06/26 00:02:05;;;;;;;6.10;5.50;;;;;;;20.75;60.30;101351.31;698078;28;69755;-62
2021/06/26 00:02:26;;;;;;;6.80;5.90;;;;;;;20.73;60.31;101350.69;698310;28;44388;-61
2021/06/26 00:02:47;;;;;;;6.20;5.70;;;;;;;20.74;60.18;101349.66;699959;28;22388;-62
2021/06/26 00:03:08;;;;;;;6.10;5.50;;;;;;;20.73;60.18;101350.69;699688;28;22424;-61
2021/06/26 00:03:30;;;;;;;6.45;5.85;;;;;;;20.74;60.14;101351.56;699879;28;23495;-61
2021/06/26 00:03:51;;;;;;;6.18;5.55;;;;;;;20.74;60.26;101351.56;698614;28;46541;-61
2021/06/26 00:04:13;;;;;;;5.90;5.30;;;;;;;20.75;60.27;101350.47;699143;28;16556;-62
2021/06/26 00:04:34;;;;;;;6.00;5.50;;;;;;;20.75;60.26;101354.03;699475;28;23408;-62
2021/06/26 00:04:56;;;;;;;6.40;5.70;;;;;;;20.74;60.15;101346.06;699906;28;22370;-62
2021/06/26 00:05:17;;;;;;;7.10;5.70;;;;;;;20.74;60.19;101351.56;698677;28;46341;-62
2021/06/26 00:05:38;;;;;;;6.32;5.82;;;;;;;20.75;60.10;101355.97;699481;28;23419;-61
2021/06/26 00:05:59;;;;;;;6.38;5.88;;;;;;;20.73;60.29;101350.69;699581;28;23488;-62
2021/06/26 00:06:22;;;;;;;6.60;6.00;;;;;;;20.73;60.29;101350.69;700588;28;1172;-62
2021/06/26 00:06:43;;;;;;;6.57;5.93;;;;;;;20.73;60.39;101347.13;697271;28;89403;-61
2021/06/26 00:07:05;;;;;;;6.07;5.57;;;;;;;20.72;60.41;101351.78;700148;28;12624;-61
2021/06/26 00:07:26;;;;;;;6.72;6.03;;;;;;;20.69;60.09;101350.34;697615;28;23606;-62
2021/06/26 00:07:48;;;;;;;6.75;6.05;;;;;;;20.69;59.57;101353.06;698819;28;46439;-61
2021/06/26 00:08:10;;;;;;;7.28;6.15;;;;;;;20.68;59.68;101348.66;698226;28;46384;-62
2021/06/26 00:08:31;;;;;;;6.68;6.10;;;;;;;20.67;59.67;101347.00;699150;28;21530;-61
2021/06/26 00:08:52;;;;;;;6.75;6.15;;;;;;;20.66;59.49;101352.72;695818;28;23414;-61
2021/06/26 00:09:14;;;;;;;6.25;5.70;;;;;;;20.65;59.76;101346.38;697391;28;21540;-62
2021/06/26 00:09:35;;;;;;;6.82;6.25;;;;;;;20.66;59.48;101344.47;698207;28;45291;-61
2021/06/26 00:09:56;;;;;;;6.55;6.05;;;;;;;20.66;59.19;101352.72;699379;28;21529;-61
2021/06/26 00:10:17;;;;;;;6.63;6.03;;;;;;;20.66;59.30;101349.97;700454;28;897;-62
2021/06/26 00:10:40;;;;;;;6.65;6.00;;;;;;;20.65;59.42;101354.59;698135;28;22409;-61
2021/06/26 00:11:01;;;;;;;7.53;6.15;;;;;;;20.65;59.46;101354.59;697821;28;68338;-62
2021/06/26 00:11:22;;;;;;;6.45;5.93;;;;;;;20.65;59.60;101349.09;699909;28;23439;-61
2021/06/26 00:11:43;;;;;;;6.30;5.78;;;;;;;20.65;59.77;101348.28;698935;28;23469;-62
2021/06/26 00:12:07;;;;;;;6.82;6.13;;;;;;;20.64;59.88;101352.03;699048;28;23541;-61
2021/06/26 00:12:28;;;;;;;7.47;6.60;;;;;;;20.63;59.73;101351.22;696338;28;92109;-62
2021/06/26 00:12:49;;;;;;;7.00;6.25;;;;;;;20.64;59.85;101354.78;699434;28;23540;-62
2021/06/26 00:13:10;;;;;;;6.80;6.10;;;;;;;20.63;59.98;101347.66;699372;28;22468;-62
2021/06/26 00:13:33;;;;;;;7.72;6.22;;;;;;;20.64;59.82;101349.31;698611;28;46321;-61
2021/06/26 00:13:54;;;;;;;6.30;5.80;;;;;;;20.63;59.71;101350.41;699956;28;917;-61
2021/06/26 00:14:17;;;;;;;6.60;6.00;;;;;;;20.62;59.80;101352.28;699977;28;2210;-62
2021/06/26 00:14:40;;;;;;;6.40;5.78;;;;;;;20.64;59.79;101354.78;700435;28;1484;-62
2021/06/26 00:15:08;;;;;;;6.70;6.03;;;;;;;20.62;59.70;101349.53;698393;28;61304;-62
2021/06/26 00:15:30;;;;;;;8.18;6.10;;;;;;;20.62;59.52;101352.28;696088;28;92261;-62
2021/06/26 00:15:52;;;;;;;6.80;5.88;;;;;;;20.63;59.71;101355.88;697413;28;40675;-61
2021/06/26 00:16:13;;;;;;;6.78;6.13;;;;;;;20.62;59.66;101352.28;699217;28;20043;-61
2021/06/26 00:16:34;;;;;;;6.05;5.55;;;;;;;20.63;59.67;101353.13;698336;28;44420;-62
2021/06/26 00:16:55;;;;;;;6.13;5.63;;;;;;;20.63;59.73;101356.72;700175;28;7397;-61
2021/06/26 00:17:17;;;;;;;7.32;6.45;;;;;;;20.62;59.92;101354.19;699557;28;23394;-61
2021/06/26 00:17:38;;;;;;;7.68;6.50;;;;;;;20.61;59.79;101347.00;698586;28;46359;-61
2021/06/26 00:17:59;;;;;;;6.88;6.22;;;;;;;20.62;59.82;101348.69;699717;28;23408;-62
2021/06/26 00:18:21;;;;;;;6.97;6.30;;;;;;;20.61;59.97;101353.38;699756;28;23497;-61
2021/06/26 00:18:43;;;;;;;6.88;6.15;;;;;;;20.62;59.90;101354.19;699752;28;23449;-61
2021/06/26 00:19:04;;;;;;;7.13;6.18;;;;;;;20.60;60.06;101343.44;698201;28;45312;-61
2021/06/26 00:19:25;;;;;;;7.82;6.35;;;;;;;20.61;60.03;101349.75;698954;28;21532;-61
2021/06/26 00:19:46;;;;;;;6.57;5.97;;;;;;;20.61;60.09;101353.38;699235;28;21318;-62
2021/06/26 00:20:09;;;;;;;6.65;6.05;;;;;;;20.61;60.18;101349.75;698763;28;23580;-61
2021/06/26 00:20:30;;;;;;;7.22;6.30;;;;;;;20.61;60.16;101349.75;698184;28;69518;-61
2021/06/26 00:20:51;;;;;;;7.78;6.40;;;;;;;20.60;60.13;101343.44;699450;28;7879;-61
2021/06/26 00:21:12;;;;;;;7.40;6.63;;;;;;;20.60;60.28;101345.38;699745;28;20885;-62
2021/06/26 00:21:37;;;;;;;6.85;6.15;;;;;;;20.60;60.21;101343.44;699778;28;15092;-61
2021/06/26 00:21:58;;;;;;;6.60;6.00;;;;;;;20.60;60.25;101348.94;698928;28;29977;-61
2021/06/26 00:22:19;;;;;;;6.55;5.95;;;;;;;20.60;60.17;101346.19;699090;28;22208;-61
2021/06/26 00:22:40;;;;;;;6.78;6.18;;;;;;;20.61;60.28;101344.28;699078;28;24321;-62
2021/06/26 00:23:02;;;;;;;9.25;6.10;;;;;;;20.62;60.09;101348.69;699366;28;23542;-62
2021/06/26 00:23:23;;;;;;;8.75;6.47;;;;;;;20.61;60.17;101349.75;698800;28;45665;-61
2021/06/26 00:23:44;;;;;;;7.30;6.60;;;;;;;20.61;60.18;101347.00;699969;28;19317;-61
2021/06/26 00:24:06;;;;;;;6.82;6.00;;;;;;;20.60;60.26;101346.19;699268;28;14172;-62
2021/06/26 00:24:28;;;;;;;6.70;5.93;;;;;;;20.60;60.38;101348.09;699047;28;46526;-61
2021/06/26 00:24:49;;;;;;;6.75;6.07;;;;;;;20.59;60.29;101346.41;698248;28;46221;-62
2021/06/26 00:25:11;;;;;;;6.65;6.00;;;;;;;20.60;60.45;101348.94;699373;28;20774;-62
2021/06/26 00:25:32;;;;;;;6.55;5.95;;;;;;;20.60;60.34;101348.94;697921;28;66266;-61
2021/06/26 00:25:53;;;;;;;6.95;6.18;;;;;;;20.59;60.35;101344.50;699418;28;20152;-61
2021/06/26 00:26:15;;;;;;;7.22;6.10;;;;;;;20.60;60.35;101346.19;699023;28;23555;-62
2021/06/26 00:26:37;;;;;;;6.88;6.28;;;;;;;20.59;60.57;101350.00;698620;28;35786;-61
2021/06/26 00:26:58;;;;;;;6.55;6.05;;;;;;;20.60;60.54;101343.44;695776;28;23501;-62
2021/06/26 00:27:19;;;;;;;6.70;6.10;;;;;;;20.60;60.57;101348.09;696926;28;11333;-61
2021/06/26 00:27:41;;;;;;;6.70;5.97;;;;;;;20.60;60.53;101351.69;695911;28;23484;-62
2021/06/26 00:28:02;;;;;;;6.50;5.90;;;;;;;20.61;60.73;101349.75;696358;28;37573;-61
2021/06/26 00:28:23;;;;;;;6.35;5.85;;;;;;;20.60;60.86;101348.94;699337;28;25483;-62
2021/06/26 00:28:48;;;;;;;6.82;6.20;;;;;;;20.59;61.02;101351.91;699412;28;15246;-61
2021/06/26 00:29:10;;;;;;;7.03;6.20;;;;;;;20.59;61.17;101360.97;699375;28;22400;-61
2021/06/26 00:29:31;;;;;;;7.07;6.38;;;;;;;20.58;61.20;101351.06;697872;28;46314;-61
2021/06/26 00:29:53;;;;;;;6.43;5.93;;;;;;;20.58;61.05;101353.81;698634;28;45254;-62
2021/06/26 00:30:15;;;;;;;7.15;6.38;;;;;;;20.58;61.28;101347.47;700662;28;62461;-62
2021/06/26 00:30:37;;;;;;;7.00;5.97;;;;;;;20.58;61.24;101350.22;701137;28;43964;-62
2021/06/26 00:30:59;;;;;;;6.22;5.72;;;;;;;20.57;61.43;101349.38;700975;28;46313;-61
2021/06/26 00:31:20;;;;;;;6.60;6.00;;;;;;;20.58;61.57;101350.22;701218;28;46319;-62
2021/06/26 00:31:41;;;;;;;7.05;6.50;;;;;;;20.57;61.46;101357.63;702565;28;20088;-61
2021/06/26 00:32:02;;;;;;;6.93;6.32;;;;;;;20.56;61.50;101349.63;701977;28;10748;-62
2021/06/26 00:32:23;;;;;;;7.07;6.25;;;;;;;20.55;61.51;101357.03;699244;28;16743;-62
2021/06/26 00:32:46;;;;;;;7.05;6.20;;;;;;;20.55;61.51;101358.91;699704;28;24169;-62
2021/06/26 00:33:07;;;;;;;7.10;6.30;;;;;;;20.55;61.56;101353.41;698801;28;42402;-62
2021/06/26 00:33:28;;;;;;;6.85;6.25;;;;;;;20.54;61.48;101349.84;699510;28;23410;-61
2021/06/26 00:33:49;;;;;;;8.38;6.40;;;;;;;20.54;61.56;101349.84;699452;28;22444;-62
2021/06/26 00:34:11;;;;;;;6.90;6.20;;;;;;;20.53;61.52;101351.75;698394;28;23439;-61
2021/06/26 00:34:32;;;;;;;7.05;6.35;;;;;;;20.52;61.34;101352.81;698230;28;43940;-62
2021/06/26 00:34:53;;;;;;;6.72;6.03;;;;;;;20.51;61.46;101350.31;699220;28;22416;-61
2021/06/26 00:35:15;;;;;;;6.57;5.97;;;;;;;20.51;61.51;101347.56;699185;28;22405;-62
2021/06/26 00:35:36;;;;;;;6.65;6.05;;;;;;;20.51;61.60;101344.81;697987;28;22210;-62
2021/06/26 00:35:57;;;;;;;6.35;5.72;;;;;;;20.49;61.29;101350.53;698267;28;44388;-62
2021/06/26 00:36:19;;;;;;;6.95;6.25;;;;;;;20.49;61.25;101346.97;699470;28;22409;-61
2021/06/26 00:36:40;;;;;;;7.13;6.43;;;;;;;20.48;61.27;101346.09;699906;28;1612;-61
2021/06/26 00:37:02;;;;;;;7.00;6.30;;;;;;;20.49;61.14;101352.44;699502;28;23394;-62
2021/06/26 00:37:23;;;;;;;6.93;6.30;;;;;;;20.48;61.11;101354.31;700105;28;916;-61
2021/06/26 00:37:46;;;;;;;6.65;6.07;;;;;;;20.48;61.00;101351.59;699644;28;22400;-62
2021/06/26 00:38:08;;;;;;;6.32;5.72;;;;;;;20.46;61.31;101352.91;700039;28;1790;-62
2021/06/26 00:38:29;;;;;;;6.18;5.68;;;;;;;20.47;61.32;101360.91;699209;28;21547;-61
2021/06/26 00:38:50;;;;;;;6.60;6.10;;;;;;;20.47;61.51;101349.06;700277;28;13002;-61
2021/06/26 00:39:16;;;;;;;6.80;6.00;;;;;;;20.47;61.49;101355.41;699186;28;39240;-62
2021/06/26 00:39:37;;;;;;;6.65;5.90;;;;;;;20.47;61.37;101360.03;697752;28;46326;-61
2021/06/26 00:39:58;;;;;;;7.38;5.95;;;;;;;20.47;61.72;101358.16;699548;28;14610;-61
2021/06/26 00:40:19;;;;;;;6.82;5.88;;;;;;;20.46;61.74;101358.38;699330;28;23410;-61
2021/06/26 00:40:42;;;;;;;6.15;5.65;;;;;;;20.46;61.91;101361.13;699942;28;1314;-61
2021/06/26 00:41:13;;;;;;;6.50;6.00;;;;;;;20.44;61.70;101358.63;696274;28;121333;-62
2021/06/26 00:41:35;;;;;;;6.88;6.18;;;;;;;20.45;61.69;101356.69;699493;28;1761;-62
2021/06/26 00:41:56;;;;;;;7.70;6.50;;;;;;;20.43;61.77;101359.66;698910;28;46359;-62
2021/06/26 00:42:18;;;;;;;7.47;6.18;;;;;;;20.41;61.73;101352.75;700675;28;1235;-62
2021/06/26 00:42:42;;;;;;;6.75;6.18;;;;;;;20.41;61.80;101355.50;699473;28;1242;-62
2021/06/26 00:43:05;;;;;;;7.05;6.30;;;;;;;20.41;61.84;101350.84;698291;28;36455;-62
2021/06/26 00:43:26;;;;;;;6.93;6.28;;;;;;;20.41;61.81;101359.06;700289;28;858;-61
2021/06/26 00:43:49;;;;;;;6.60;6.00;;;;;;;20.40;61.84;101360.13;700203;28;952;-61
2021/06/26 00:44:10;;;;;;;6.60;6.10;;;;;;;20.41;61.86;101360.97;697585;28;46405;-61
2021/06/26 00:44:32;;;;;;;6.53;5.93;;;;;;;20.42;61.57;101363.47;695905;28;44566;-62
2021/06/26 00:44:58;;;;;;;6.57;6.07;;;;;;;20.41;61.85;101353.59;699294;28;14141;-62
2021/06/26 00:45:19;;;;;;;6.60;6.00;;;;;;;20.41;61.81;101364.56;696310;28;69467;-62
2021/06/26 00:45:41;;;;;;;6.22;5.72;;;;;;;20.41;61.74;101359.06;699477;28;22513;-61
2021/06/26 00:46:03;;;;;;;6.72;6.10;;;;;;;20.41;61.78;101356.31;698139;28;46507;-62
2021/06/26 00:46:24;;;;;;;6.30;5.80;;;;;;;20.41;61.80;101361.81;698533;28;41574;-62
2021/06/26 00:46:45;;;;;;;6.50;5.90;;;;;;;20.41;61.82;101359.06;700486;28;965;-62
2021/06/26 00:47:11;;;;;;;7.28;6.22;;;;;;;20.41;61.79;101359.06;699720;28;17708;-61
2021/06/26 00:47:33;;;;;;;6.93;6.32;;;;;;;20.41;61.73;101361.81;695959;28;129973;-62
2021/06/26 00:47:54;;;;;;;6.75;6.15;;;;;;;20.41;61.67;101360.97;698401;28;36213;-62
2021/06/26 00:48:15;;;;;;;6.88;6.20;;;;;;;20.41;61.79;101358.25;699792;28;8379;-62
2021/06/26 00:48:36;;;;;;;6.70;6.00;;;;;;;20.41;61.74;101360.97;699972;28;13526;-61
2021/06/26 00:48:58;;;;;;;7.00;6.40;;;;;;;20.43;61.62;101367.06;698941;28;23560;-61
2021/06/26 00:49:20;;;;;;;7.00;6.32;;;;;;;20.43;61.50;101359.66;697649;28;45266;-61
2021/06/26 00:49:41;;;;;;;6.85;6.25;;;;;;;20.43;61.58;101361.59;698728;28;12568;-62
2021/06/26 00:50:03;;;;;;;6.65;5.97;;;;;;;20.41;61.41;101358.25;699201;28;23487;-62
2021/06/26 00:50:27;;;;;;;7.00;6.30;;;;;;;20.42;61.52;101363.47;698313;28;63168;-62
2021/06/26 00:50:48;;;;;;;6.90;6.20;;;;;;;20.40;61.40;101362.88;697153;28;70213;-61
2021/06/26 00:51:09;;;;;;;6.63;5.88;;;;;;;20.40;61.49;101356.56;699657;28;21525;-61
2021/06/26 00:51:30;;;;;;;7.22;6.40;;;;;;;20.39;61.57;101358.47;698039;28;47263;-61
2021/06/26 00:51:52;;;;;;;7.10;6.40;;;;;;;20.40;61.67;101364.78;696600;28;22195;-61
2021/06/26 00:52:14;;;;;;;6.90;6.30;;;;;;;20.40;61.70;101365.63;695723;28;47168;-61
2021/06/26 00:52:36;;;;;;;6.82;6.22;;;;;;;20.39;61.64;101365.84;697170;28;838;-62
2021/06/26 00:52:58;;;;;;;7.20;6.57;;;;;;;20.39;61.71;101366.69;696722;28;1704;-61
2021/06/26 00:53:20;;;;;;;6.47;5.97;;;;;;;20.38;61.67;101364.19;697187;28;1174;-61
2021/06/26 00:53:41;;;;;;;6.90;6.30;;;;;;;20.36;61.67;101358.94;696991;28;27652;-62
2021/06/26 00:54:03;;;;;;;7.07;6.38;;;;;;;20.36;61.74;101364.41;699887;28;943;-62
2021/06/26 00:54:26;;;;;;;6.53;5.97;;;;;;;20.35;61.83;101359.97;696964;28;1209;-61
2021/06/26 00:54:47;;;;;;;6.68;6.07;;;;;;;20.34;61.67;101361.88;696340;28;22402;-61
2021/06/26 00:55:10;;;;;;;6.65;6.05;;;;;;;20.33;62.02;101357.47;696682;28;21427;-62
2021/06/26 00:55:31;;;;;;;7.55;6.78;;;;;;;20.33;61.95;101365.69;693208;28;70292;-62
2021/06/26 00:55:52;;;;;;;8.65;6.72;;;;;;;20.33;61.96;101362.94;695944;28;8548;-62
2021/06/26 00:56:14;;;;;;;6.60;6.00;;;;;;;20.31;61.83;101362.34;696551;28;23443;-62
2021/06/26 00:56:35;;;;;;;6.68;6.05;;;;;;;20.32;61.88;101363.16;697556;28;57690;-61
2021/06/26 00:56:57;;;;;;;7.03;6.18;;;;;;;20.31;61.72;101356.84;699649;28;6311;-62
2021/06/26 00:57:18;;;;;;;6.20;5.63;;;;;;;20.32;61.67;101361.25;698985;28;22557;-61
2021/06/26 00:57:44;;;;;;;8.73;6.10;;;;;;;20.31;61.66;101364.22;697469;28;47649;-62
2021/06/26 00:58:06;;;;;;;6.75;6.05;;;;;;;20.32;61.68;101364.00;694855;28;136748;-62
2021/06/26 00:58:28;;;;;;;8.15;6.60;;;;;;;20.34;61.50;101361.88;698556;28;46465;-62
2021/06/26 00:58:49;;;;;;;7.78;6.63;;;;;;;20.35;61.45;101359.97;698598;28;37083;-61
2021/06/26 00:59:10;;;;;;;7.20;6.50;;;;;;;20.36;61.32;101358.94;699038;28;23563;-62
2021/06/26 00:59:33;;;;;;;7.20;6.50;;;;;;;20.38;61.05;101361.44;698108;28;23471;-62
2021/06/26 00:59:54;;;;;;;7.25;6.55;;;;;;;20.39;60.84;101363.09;697444;28;69424;-62
2021/06/26 01:00:18;;;;;;;7.55;6.55;;;;;;;20.39;60.85;101363.97;699708;28;22547;-61
2021/06/26 01:00:39;;;;;;;6.60;6.00;;;;;;;20.40;60.85;101367.53;697223;28;92151;-61
2021/06/26 01:01:02;;;;;;;6.60;6.10;;;;;;;20.40;60.76;101362.88;699643;28;1159;-62
2021/06/26 01:01:23;;;;;;;7.20;6.50;;;;;;;20.41;60.79;101369.22;697846;28;45264;-62
2021/06/26 01:01:44;;;;;;;6.95;6.25;;;;;;;20.39;60.45;101365.84;699409;28;11084;-61
2021/06/26 01:02:07;;;;;;;7.65;6.40;;;;;;;20.39;60.44;101363.97;699736;28;1039;-61
2021/06/26 01:02:28;;;;;;;6.95;6.22;;;;;;;20.39;60.41;101368.59;697358;28;68396;-62
2021/06/26 01:02:50;;;;;;;6.97;6.38;;;;;;;20.38;60.47;101365.00;699023;28;22163;-61
2021/06/26 01:03:12;;;;;;;7.43;6.68;;;;;;;20.37;60.69;101368.81;698376;28;44410;-63
2021/06/26 01:03:33;;;;;;;6.93;6.18;;;;;;;20.37;60.86;101370.72;696240;28;22406;-62
2021/06/26 01:03:54;;;;;;;6.45;5.85;;;;;;;20.34;60.83;101366.53;696664;28;23473;-61
2021/06/26 01:04:16;;;;;;;7.30;6.65;;;;;;;20.32;60.85;101364.00;696521;28;22377;-62
2021/06/26 01:04:37;;;;;;;6.80;6.20;;;;;;;20.32;60.96;101365.91;694943;28;44271;-62
2021/06/26 01:04:58;;;;;;;7.30;6.60;;;;;;;20.30;60.89;101359.84;696322;28;22392;-61
2021/06/26 01:05:19;;;;;;;7.07;6.45;;;;;;;20.30;60.97;101366.16;697218;28;24648;-61
2021/06/26 01:05:42;;;;;;;7.03;6.32;;;;;;;20.30;61.03;101368.06;698097;28;66600;-61
2021/06/26 01:06:03;;;;;;;6.70;6.10;;;;;;;20.31;61.05;101372.47;698548;28;45258;-62
2021/06/26 01:06:24;;;;;;;7.25;6.55;;;;;;;20.30;61.04;101368.06;699460;28;21532;-62
2021/06/26 01:06:45;;;;;;;6.70;6.10;;;;;;;20.30;61.18;101368.06;699683;28;22454;-62
2021/06/26 01:07:07;;;;;;;7.05;6.35;;;;;;;20.30;61.07;101360.66;699671;28;22407;-61
2021/06/26 01:07:28;;;;;;;6.97;6.32;;;;;;;20.30;61.06;101362.56;698883;28;46482;-61
2021/06/26 01:07:51;;;;;;;6.97;6.30;;;;;;;20.30;61.05;101368.06;699453;28;23497;-62
2021/06/26 01:08:13;;;;;;;6.60;6.00;;;;;;;20.28;61.15;101368.28;696724;28;92252;-62
2021/06/26 01:08:34;;;;;;;6.40;5.90;;;;;;;20.29;61.16;101371.84;699719;28;23453;-62
2021/06/26 01:08:55;;;;;;;6.65;6.10;;;;;;;20.28;61.24;101368.28;698858;28;23504;-61
2021/06/26 01:09:18;;;;;;;6.72;6.13;;;;;;;20.29;61.16;101369.13;699795;28;24768;-62
2021/06/26 01:09:39;;;;;;;6.40;5.90;;;;;;;20.28;61.08;101368.28;697237;28;69513;-61
2021/06/26 01:10:00;;;;;;;6.70;6.10;;;;;;;20.28;61.29;101370.16;699442;28;22422;-62
2021/06/26 01:10:21;;;;;;;7.28;6.05;;;;;;;20.27;61.48;101368.50;699313;28;23201;-62
2021/06/26 01:10:43;;;;;;;6.63;6.03;;;;;;;20.26;61.27;101372.31;699430;28;23393;-62
2021/06/26 01:11:04;;;;;;;6.78;6.18;;;;;;;20.26;61.55;101373.13;698638;28;46560;-62
2021/06/26 01:11:25;;;;;;;7.10;6.40;;;;;;;20.26;61.50;101372.31;698404;28;23491;-62
2021/06/26 01:11:46;;;;;;;8.25;6.55;;;;;;;20.26;61.48;101367.66;699457;28;22174;-62
2021/06/26 01:12:08;;;;;;;6.88;6.25;;;;;;;20.27;61.58;101374.00;698609;28;22412;-61
2021/06/26 01:12:30;;;;;;;6.55;5.95;;;;;;;20.27;61.70;101374.81;698075;28;44528;-62
2021/06/26 01:12:51;;;;;;;6.85;6.25;;;;;;;20.24;61.75;101372.53;698163;28;46474;-62
2021/06/26 01:13:12;;;;;;;7.47;6.72;;;;;;;20.23;61.87;101370.84;698251;28;23393;-62
2021/06/26 01:13:34;;;;;;;6.82;6.13;;;;;;;20.23;61.93;101376.31;699374;28;19241;-61
2021/06/26 01:13:56;;;;;;;6.72;6.13;;;;;;;20.23;61.96;101378.25;698395;28;46384;-61
2021/06/26 01:14:18;;;;;;;6.95;6.35;;;;;;;20.21;61.97;101374.91;698331;28;43146;-61
2021/06/26 01:14:41;;;;;;;6.90;6.22;;;;;;;20.17;62.14;101378.09;695724;28;33126;-62
2021/06/26 01:15:03;;;;;;;7.53;6.53;;;;;;;20.15;62.13;101369.22;695188;28;46340;-62
2021/06/26 01:15:26;;;;;;;7.55;6.85;;;;;;;20.16;62.07;101373.66;694412;28;69925;-62
2021/06/26 01:15:50;;;;;;;7.70;6.55;;;;;;;20.14;62.02;101377.69;696404;28;46357;-62
2021/06/26 01:16:12;;;;;;;11.32;6.57;;;;;;;20.13;62.06;101368.63;696676;28;83108;-61
2021/06/26 01:16:33;;;;;;;8.27;6.70;;;;;;;20.12;61.98;101377.91;697217;28;45047;-62
2021/06/26 01:16:54;;;;;;;7.03;6.43;;;;;;;20.11;62.09;101370.75;699373;28;14185;-61
2021/06/26 01:17:15;;;;;;;6.72;6.13;;;;;;;20.11;62.08;101375.38;695966;28;14398;-62
2021/06/26 01:17:36;;;;;;;6.93;6.32;;;;;;;20.09;61.93;101374.78;696061;28;22397;-62
2021/06/26 01:17:58;;;;;;;7.35;6.65;;;;;;;20.06;61.88;101376.09;695378;28;46303;-61
2021/06/26 01:18:20;;;;;;;7.28;6.57;;;;;;;20.04;61.95;101364.50;695376;28;42291;-62
2021/06/26 01:18:41;;;;;;;7.13;6.43;;;;;;;20.04;61.90;101371.88;697337;28;930;-62
2021/06/26 01:19:02;;;;;;;6.85;6.18;;;;;;;20.03;61.89;101368.31;699781;28;9708;-62
2021/06/26 01:19:23;;;;;;;7.07;6.38;;;;;;;20.01;62.06;101364.94;699007;28;14095;-61
2021/06/26 01:19:45;;;;;;;7.60;6.70;;;;;;;20.01;62.16;101370.41;698643;28;22409;-62
2021/06/26 01:20:08;;;;;;;7.20;6.50;;;;;;;20.01;62.06;101364.09;698654;28;38395;-62
2021/06/26 01:20:30;;;;;;;7.20;6.60;;;;;;;20.02;62.00;101363.06;696719;28;93133;-61
2021/06/26 01:20:51;;;;;;;7.40;6.70;;;;;;;20.01;62.14;101364.94;699104;28;23395;-62
2021/06/26 01:21:13;;;;;;;6.97;6.35;;;;;;;20.01;62.12;101362.19;699711;28;21330;-62
2021/06/26 01:21:35;;;;;;;6.63;6.13;;;;;;;20.01;62.16;101370.41;698080;28;46050;-61
2021/06/26 01:21:58;;;;;;;6.80;6.20;;;;;;;20.00;61.98;101366.03;699306;28;37157;-62
2021/06/26 01:22:21;;;;;;;7.05;6.40;;;;;;;19.99;62.16;101362.41;697702;28;69292;-62
2021/06/26 01:22:46;;;;;;;6.75;6.15;;;;;;;19.99;62.28;101356.94;697509;28;69389;-62
2021/06/26 01:23:07;;;;;;;7.43;6.47;;;;;;;19.99;62.13;101358.84;695085;28;114906;-62
2021/06/26 01:23:29;;;;;;;6.95;6.25;;;;;;;19.98;62.17;101362.66;699799;28;23502;-62
2021/06/26 01:23:52;;;;;;;6.78;6.13;;;;;;;19.98;62.19;101369.00;698429;28;45282;-62
2021/06/26 01:24:14;;;;;;;7.13;6.43;;;;;;;19.98;62.21;101359.91;699230;28;29202;-62
2021/06/26 01:24:35;;;;;;;7.18;6.47;;;;;;;19.99;62.10;101364.34;698276;28;45227;-62
2021/06/26 01:24:57;;;;;;;7.05;6.35;;;;;;;19.98;62.13;101357.16;699148;28;23496;-62
2021/06/26 01:25:19;;;;;;;7.28;6.57;;;;;;;19.98;62.32;101359.91;698586;28;46259;-62
2021/06/26 01:25:41;;;;;;;7.10;6.50;;;;;;;19.98;62.29;101360.75;698452;28;44278;-62
2021/06/26 01:26:04;;;;;;;7.35;6.65;;;;;;;19.99;62.19;101358.84;698220;28;46349;-61
2021/06/26 01:26:28;;;;;;;7.55;6.75;;;;;;;19.99;61.96;101358.84;697386;28;69543;-61
2021/06/26 01:26:55;;;;;;;7.38;6.38;;;;;;;20.00;62.22;101357.78;696493;28;91896;-62
2021/06/26 01:27:17;;;;;;;7.68;6.95;;;;;;;19.99;62.33;101359.69;694817;28;161990;-62
2021/06/26 01:27:38;;;;;;;7.13;6.43;;;;;;;19.99;62.37;101356.09;698642;28;43724;-62
2021/06/26 01:28:00;;;;;;;7.50;6.70;;;;;;;19.98;62.29;101359.91;698103;28;44369;-62
2021/06/26 01:28:21;;;;;;;10.18;6.88;;;;;;;19.97;62.38;101355.50;698463;28;46347;-62
2021/06/26 01:28:43;;;;;;;7.50;6.70;;;;;;;19.96;62.30;101360.13;699532;28;20880;-62
2021/06/26 01:29:08;;;;;;;7.25;6.63;;;;;;;19.97;62.39;101355.50;698666;28;44514;-62
2021/06/26 01:29:30;;;;;;;7.00;6.40;;;;;;;19.96;62.49;101362.03;695235;28;115132;-61
2021/06/26 01:29:52;;;;;;;6.97;6.28;;;;;;;19.96;62.49;101359.28;698221;28;23490;-62
2021/06/26 01:30:15;;;;;;;6.82;6.13;;;;;;;19.96;62.55;101359.28;698611;28;43806;-62
2021/06/26 01:30:36;;;;;;;7.05;6.40;;;;;;;19.96;62.52;101368.34;696722;28;91800;-62
2021/06/26 01:30:58;;;;;;;6.70;6.00;;;;;;;19.94;62.49;101362.25;698878;28;22409;-62
2021/06/26 01:31:19;;;;;;;6.95;6.25;;;;;;;19.93;62.48;101360.56;699163;28;22395;-62
2021/06/26 01:31:41;;;;;;;7.00;6.30;;;;;;;19.95;62.40;101363.09;698919;28;23508;-61
2021/06/26 01:32:05;;;;;;;7.47;6.68;;;;;;;19.93;62.52;101366.06;699171;28;34368;-62
2021/06/26 01:32:26;;;;;;;8.38;6.90;;;;;;;19.93;62.58;101368.78;696694;28;92305;-62
2021/06/26 01:32:47;;;;;;;7.30;6.60;;;;;;;19.93;62.61;101366.06;698767;28;23449;-62
2021/06/26 01:33:09;;;;;;;6.90;6.30;;;;;;;19.91;62.32;101357.22;698245;28;23467;-62
2021/06/26 01:33:30;;;;;;;7.32;6.63;;;;;;;19.91;62.51;101361.88;698499;28;46334;-62
2021/06/26 01:33:51;;;;;;;7.05;6.38;;;;;;;19.91;62.47;101361.88;698206;28;45035;-62
2021/06/26 01:34:13;;;;;;;7.22;6.53;;;;;;;19.90;62.59;101361.03;699540;28;21617;-62
2021/06/26 01:34:34;;;;;;;8.25;6.40;;;;;;;19.89;62.61;101362.09;699608;28;22399;-62
2021/06/26 01:34:55;;;;;;;7.72;6.57;;;;;;;19.88;62.50;101365.91;699562;28;1712;-62
2021/06/26 01:35:17;;;;;;;7.20;6.57;;;;;;;19.88;62.49;101365.91;696233;28;22425;-61
2021/06/26 01:35:41;;;;;;;7.15;6.45;;;;;;;19.86;62.59;101362.56;695621;28;36354;-62
2021/06/26 01:36:03;;;;;;;7.40;6.63;;;;;;;19.88;62.58;101365.06;696784;28;13993;-62
2021/06/26 01:36:24;;;;;;;7.53;6.82;;;;;;;19.86;62.54;101365.28;695255;28;46382;-62
2021/06/26 01:36:46;;;;;;;6.88;6.28;;;;;;;19.87;62.54;101366.13;696702;28;22034;-62
2021/06/26 01:37:08;;;;;;;6.93;6.40;;;;;;;19.86;62.54;101362.56;695663;28;27819;-62
2021/06/26 01:37:29;;;;;;;7.50;6.80;;;;;;;19.87;62.54;101368.88;697706;28;45107;-62
2021/06/26 01:37:51;;;;;;;7.35;6.63;;;;;;;19.87;62.60;101366.13;699310;28;23494;-62
2021/06/26 01:38:13;;;;;;;7.10;6.50;;;;;;;19.85;62.44;101371.00;698351;28;34838;-62
2021/06/26 01:38:35;;;;;;;7.07;6.47;;;;;;;19.84;62.60;101364.66;698826;28;37120;-62
2021/06/26 01:38:57;;;;;;;7.32;6.65;;;;;;;19.83;62.48;101368.47;699110;28;23733;-62
2021/06/26 01:39:19;;;;;;;7.72;6.40;;;;;;;19.82;62.67;101365.97;699016;28;14418;-61
2021/06/26 01:39:42;;;;;;;7.05;6.45;;;;;;;19.79;62.44;101362.59;699939;28;1679;-62
2021/06/26 01:40:04;;;;;;;7.32;6.72;;;;;;;19.78;62.59;101363.66;699019;28;33349;-62
2021/06/26 01:40:27;;;;;;;7.15;6.55;;;;;;;19.77;62.74;101369.38;698758;28;47457;-61
2021/06/26 01:40:48;;;;;;;7.20;6.60;;;;;;;19.75;62.77;101358.59;697449;28;70189;-62
2021/06/26 01:41:10;;;;;;;6.82;6.22;;;;;;;19.74;62.69;101367.88;699976;28;7740;-61
2021/06/26 01:41:32;;;;;;;7.72;7.03;;;;;;;19.72;62.83;101367.25;698357;28;47157;-62
2021/06/26 01:41:53;;;;;;;7.85;7.05;;;;;;;19.72;62.80;101367.25;700048;28;14834;-62
2021/06/26 01:42:20;;;;;;;7.75;6.90;;;;;;;19.70;62.91;101365.78;698179;28;61390;-61
2021/06/26 01:42:41;;;;;;;7.47;6.68;;;;;;;19.69;62.85;101370.44;700184;28;6885;-61
2021/06/26 01:43:12;;;;;;;7.68;6.80;;;;;;;19.68;63.02;101366.03;698430;28;37151;-62